Time;durP1;ratioP1;P1;durP2;ratioP2;P2;SDS_P1;SDS_P2;PMS_P1;PMS_P2;Temp;Humidity;BMP_temperature;BMP_pressure;BME280_temperature;BME280_humidity;BME280_pressure;Samples;Min_cycle;Max_cycle;Signal;HPM_P1;HPM_P2
2022/05/07 00:01:31;;;;;;;2.53;1.20;;;12.70;91.80;;;;;;4890132;29;20032;-73
2022/05/07 00:03:57;;;;;;;0.80;0.80;;;12.60;91.80;;;;;;4906195;29;20040;-73
2022/05/07 00:06:22;;;;;;;0.88;0.82;;;12.60;91.50;;;;;;4907518;29;20518;-73
2022/05/07 00:08:48;;;;;;;1.00;1.00;;;12.60;91.30;;;;;;4908201;29;20040;-73
2022/05/07 00:11:20;;;;;;;2.50;1.23;;;12.70;91.30;;;;;;4905485;29;20040;-73
2022/05/07 00:13:49;;;;;;;1.75;0.82;;;12.70;91.50;;;;;;4915869;29;20036;-73
2022/05/07 00:18:59;;;;;;;8.30;1.15;;;12.80;91.80;;;;;;4906247;29;20265;-71
2022/05/07 00:21:24;;;;;;;2.05;1.20;;;12.80;91.70;;;;;;4908731;29;20028;-73
2022/05/07 00:23:50;;;;;;;1.17;1.08;;;12.80;91.60;;;;;;4908373;29;20044;-73
2022/05/07 00:26:15;;;;;;;3.63;1.20;;;12.80;91.50;;;;;;4907933;29;20576;-73
2022/05/07 00:28:41;;;;;;;2.03;0.75;;;12.80;91.60;;;;;;4907911;29;20079;-73
2022/05/07 00:31:07;;;;;;;1.10;0.70;;;12.80;91.70;;;;;;4904570;29;20079;-73
2022/05/07 00:33:32;;;;;;;1.70;1.05;;;12.80;91.70;;;;;;4906712;29;20028;-73
2022/05/07 00:35:58;;;;;;;1.67;0.88;;;12.80;91.90;;;;;;4908193;29;20805;-73
2022/05/07 00:38:23;;;;;;;2.00;1.08;;;12.80;91.90;;;;;;4907779;29;20071;-73
2022/05/07 00:40:50;;;;;;;3.45;1.65;;;12.80;91.80;;;;;;4908025;29;20034;-73
2022/05/07 00:43:17;;;;;;;2.17;1.15;;;12.80;92.20;;;;;;4907226;29;20087;-73
2022/05/07 00:45:46;;;;;;;1.67;1.00;;;12.70;91.90;;;;;;4906192;29;20054;-73
2022/05/07 00:48:14;;;;;;;1.92;0.95;;;12.70;92.00;;;;;;4903878;29;20044;-73
2022/05/07 00:53:25;;;;;;;2.40;1.15;;;12.60;92.50;;;;;;4907369;29;20267;-73
2022/05/07 00:55:52;;;;;;;1.20;1.10;;;12.50;92.60;;;;;;4908032;29;20303;-73
2022/05/07 00:58:18;;;;;;;1.77;1.02;;;12.40;92.50;;;;;;4907494;29;20094;-73
2022/05/07 01:00:44;;;;;;;1.50;0.80;;;12.30;92.50;;;;;;4906213;29;20047;-73
2022/05/07 01:03:10;;;;;;;0.90;0.90;;;12.30;92.50;;;;;;4902297;29;20121;-73
2022/05/07 01:05:36;;;;;;;1.65;0.90;;;12.20;92.50;;;;;;4889466;29;20068;-73
2022/05/07 01:08:02;;;;;;;2.03;1.15;;;12.20;92.70;;;;;;4902804;29;20636;-73
2022/05/07 01:10:28;;;;;;;3.08;1.30;;;12.10;92.90;;;;;;4908302;29;20487;-73
2022/05/07 01:12:55;;;;;;;2.58;1.08;;;12.00;93.20;;;;;;4907714;29;20058;-73
2022/05/07 01:15:21;;;;;;;3.67;1.08;;;11.90;93.50;;;;;;4906045;29;20036;-74
2022/05/07 01:17:46;;;;;;;3.40;1.10;;;11.90;93.60;;;;;;4907819;29;20562;-73
2022/05/07 01:20:14;;;;;;;2.33;1.27;;;11.80;93.60;;;;;;4905740;29;20032;-73
2022/05/07 01:22:41;;;;;;;1.38;1.27;;;11.80;93.60;;;;;;4894061;29;20080;-73
2022/05/07 01:25:07;;;;;;;1.38;1.00;;;11.70;93.80;;;;;;4907557;29;20574;-73
2022/05/07 01:27:33;;;;;;;2.35;1.15;;;11.70;94.10;;;;;;4908091;29;20039;-73
2022/05/07 01:29:59;;;;;;;2.88;1.42;;;11.70;93.90;;;;;;4907401;29;20044;-73
2022/05/07 01:32:24;;;;;;;3.38;1.63;;;11.70;93.90;;;;;;4899194;29;20032;-73
2022/05/07 01:34:53;;;;;;;1.77;1.20;;;11.80;94.00;;;;;;4906443;29;20492;-73
2022/05/07 01:37:19;;;;;;;1.52;1.33;;;11.70;93.90;;;;;;4904157;29;20039;-73
2022/05/07 01:39:45;;;;;;;3.72;1.20;;;11.70;93.90;;;;;;4888866;29;20028;-73
2022/05/07 01:42:10;;;;;;;2.58;1.23;;;11.60;94.10;;;;;;4901621;29;20028;-73
2022/05/07 01:44:36;;;;;;;1.23;1.08;;;11.50;94.40;;;;;;4905346;29;20127;-73
2022/05/07 01:49:47;;;;;;;1.67;1.50;;;11.40;95.10;;;;;;4908442;29;20515;-73
2022/05/07 01:52:14;;;;;;;2.83;1.17;;;11.50;95.20;;;;;;4902122;29;20032;-73
2022/05/07 01:54:39;;;;;;;1.20;1.10;;;11.50;95.10;;;;;;4915028;29;20036;-73
2022/05/07 01:57:05;;;;;;;2.03;1.35;;;11.60;94.90;;;;;;4894262;29;20039;-73
2022/05/07 01:59:31;;;;;;;2.38;1.55;;;11.50;94.90;;;;;;4907452;29;20038;-73
2022/05/07 02:01:56;;;;;;;3.97;1.52;;;11.50;94.90;;;;;;4907516;29;20028;-73
2022/05/07 02:04:22;;;;;;;1.20;1.10;;;11.50;95.10;;;;;;4905142;29;20500;-73
2022/05/07 02:06:48;;;;;;;3.85;1.42;;;11.50;95.20;;;;;;4905371;29;20433;-73
2022/05/07 02:09:14;;;;;;;1.15;1.10;;;11.50;95.30;;;;;;4907598;29;20078;-73
2022/05/07 02:11:39;;;;;;;1.50;1.40;;;11.40;95.30;;;;;;4904850;29;20067;-73
2022/05/07 02:14:05;;;;;;;2.03;1.25;;;11.30;95.20;;;;;;4905244;29;20079;-73
2022/05/07 02:16:31;;;;;;;3.65;1.92;;;11.30;95.20;;;;;;4907146;29;20555;-73
2022/05/07 02:18:57;;;;;;;2.65;1.40;;;11.20;95.30;;;;;;4905834;29;20423;-72
2022/05/07 02:21:23;;;;;;;4.13;1.33;;;11.20;95.60;;;;;;4906020;29;20488;-72
2022/05/07 02:23:48;;;;;;;2.25;1.23;;;11.10;95.60;;;;;;4904631;29;20040;-73
2022/05/07 02:26:14;;;;;;;1.10;1.00;;;11.00;95.60;;;;;;4905466;29;20075;-72
2022/05/07 02:28:39;;;;;;;2.30;0.90;;;11.00;95.90;;;;;;4901858;29;20036;-72
2022/05/07 02:31:05;;;;;;;1.40;1.17;;;10.90;96.00;;;;;;4896693;29;20055;-72
2022/05/07 02:33:31;;;;;;;2.53;1.52;;;10.90;96.00;;;;;;4905088;29;20036;-72
2022/05/07 02:35:56;;;;;;;2.40;1.90;;;10.80;96.40;;;;;;4902206;29;20036;-72
2022/05/07 02:38:22;;;;;;;3.30;1.90;;;10.80;96.40;;;;;;4906192;29;20087;-73
2022/05/07 02:43:31;;;;;;;2.25;1.85;;;10.80;96.70;;;;;;4906089;29;20616;-72
2022/05/07 02:45:57;;;;;;;2.67;2.10;;;11.00;96.70;;;;;;4904215;29;20123;-72
2022/05/07 02:48:23;;;;;;;2.38;1.88;;;11.00;96.90;;;;;;4907602;29;20032;-72
2022/05/07 02:50:48;;;;;;;3.50;2.05;;;11.10;96.60;;;;;;4906527;29;20524;-72
2022/05/07 02:53:14;;;;;;;4.38;1.60;;;11.00;96.40;;;;;;4896921;29;20396;-72
2022/05/07 02:55:40;;;;;;;3.03;1.80;;;11.00;96.20;;;;;;4905995;29;20047;-72
2022/05/07 02:58:06;;;;;;;3.45;1.63;;;11.00;96.30;;;;;;4905885;29;20028;-73
2022/05/07 03:00:32;;;;;;;1.27;1.17;;;11.00;96.20;;;;;;4907122;29;20103;-72
2022/05/07 03:02:58;;;;;;;2.92;1.40;;;11.10;96.10;;;;;;4897797;29;20515;-73
2022/05/07 03:05:23;;;;;;;2.05;1.55;;;11.20;96.10;;;;;;4906682;29;20512;-72
2022/05/07 03:07:49;;;;;;;3.55;1.27;;;11.30;95.90;;;;;;4901686;29;20029;-72
2022/05/07 03:10:15;;;;;;;3.13;1.38;;;11.30;95.70;;;;;;4889790;29;20115;-73
2022/05/07 03:12:41;;;;;;;1.38;1.27;;;11.40;95.60;;;;;;4904498;29;20127;-72
2022/05/07 03:15:07;;;;;;;2.58;1.48;;;11.50;95.40;;;;;;4907260;29;20036;-72
2022/05/07 03:17:34;;;;;;;1.48;1.38;;;11.50;95.30;;;;;;4905711;29;20052;-72
2022/05/07 03:20:00;;;;;;;2.75;1.20;;;11.60;95.30;;;;;;4898303;29;20087;-72
2022/05/07 03:22:26;;;;;;;1.58;1.10;;;11.60;95.30;;;;;;4899242;29;20916;-72
2022/05/07 03:24:51;;;;;;;1.65;1.30;;;11.70;95.10;;;;;;4905819;29;20043;-73
2022/05/07 03:27:17;;;;;;;1.77;1.65;;;11.80;95.20;;;;;;4906207;29;20039;-72
2022/05/07 03:29:43;;;;;;;1.52;1.42;;;11.90;95.00;;;;;;4904563;29;20070;-72
2022/05/07 03:32:09;;;;;;;2.60;1.27;;;11.90;94.80;;;;;;4903492;29;20040;-72
2022/05/07 03:34:35;;;;;;;1.45;1.10;;;11.90;94.80;;;;;;4905812;29;20063;-72
2022/05/07 03:37:01;;;;;;;1.48;1.02;;;12.00;94.70;;;;;;4898781;29;20488;-72
2022/05/07 03:39:26;;;;;;;1.23;1.02;;;12.00;94.80;;;;;;4890667;29;20037;-72
2022/05/07 03:41:52;;;;;;;3.00;1.42;;;12.00;94.60;;;;;;4905418;29;20036;-72
2022/05/07 03:44:18;;;;;;;1.77;1.40;;;12.00;94.60;;;;;;4906505;29;20098;-72
2022/05/07 03:46:43;;;;;;;1.83;1.60;;;12.00;94.70;;;;;;4905306;29;20092;-72
2022/05/07 03:49:09;;;;;;;1.98;1.30;;;12.00;94.50;;;;;;4906536;29;20324;-72
2022/05/07 03:53:29;;;;;;;2.35;1.63;;;12.10;94.40;;;;;;4904101;29;20040;-72
2022/05/07 03:54:21;;;;;;;1.65;1.40;;;12.10;94.30;;;;;;4895783;29;20041;-72
2022/05/07 03:56:46;;;;;;;1.98;1.13;;;12.10;94.60;;;;;;4906260;29;20084;-72
2022/05/07 03:59:12;;;;;;;2.85;1.27;;;12.10;94.90;;;;;;4920722;29;20096;-72
2022/05/07 04:01:37;;;;;;;2.65;1.15;;;12.00;94.70;;;;;;4904155;29;20135;-72
2022/05/07 04:04:03;;;;;;;1.60;1.35;;;11.90;94.70;;;;;;4905991;29;20052;-73
2022/05/07 04:06:29;;;;;;;2.67;1.10;;;11.90;94.90;;;;;;4905306;29;20044;-72
2022/05/07 04:08:54;;;;;;;3.78;1.90;;;11.90;94.90;;;;;;4905111;29;20028;-72
2022/05/07 04:11:20;;;;;;;1.08;1.05;;;11.80;94.90;;;;;;4904188;29;20044;-72
2022/05/07 04:13:46;;;;;;;3.38;1.52;;;11.70;94.90;;;;;;4906664;29;20028;-72
2022/05/07 04:16:11;;;;;;;1.73;1.38;;;11.70;95.00;;;;;;4903474;29;20123;-72
2022/05/07 04:18:37;;;;;;;1.38;1.23;;;11.70;95.10;;;;;;4905626;29;20115;-72
2022/05/07 04:21:04;;;;;;;1.58;1.27;;;11.70;95.10;;;;;;4905424;29;20201;-72
2022/05/07 04:23:30;;;;;;;1.58;1.48;;;11.60;95.00;;;;;;4904664;29;20024;-73
2022/05/07 04:25:56;;;;;;;1.98;1.80;;;11.60;95.50;;;;;;4905989;29;20055;-72
2022/05/07 04:28:21;;;;;;;1.98;1.88;;;11.60;95.50;;;;;;4895369;29;20033;-72
2022/05/07 04:30:47;;;;;;;1.60;1.50;;;11.60;95.40;;;;;;4898251;29;20419;-72
2022/05/07 04:33:15;;;;;;;2.15;1.67;;;11.60;95.50;;;;;;4904028;29;20123;-72
2022/05/07 04:35:41;;;;;;;4.95;1.90;;;11.60;95.50;;;;;;4905764;29;20111;-72
2022/05/07 04:38:06;;;;;;;2.17;1.52;;;11.60;95.50;;;;;;4904488;29;20034;-72
2022/05/07 04:40:32;;;;;;;2.00;1.52;;;11.60;95.40;;;;;;4906942;29;20040;-72
2022/05/07 04:42:58;;;;;;;4.20;2.00;;;11.60;95.40;;;;;;4908670;29;20064;-72
2022/05/07 04:45:25;;;;;;;3.53;1.80;;;11.70;95.40;;;;;;4906368;29;20075;-72
2022/05/07 04:47:51;;;;;;;2.15;1.60;;;11.60;95.40;;;;;;4910128;29;20043;-72
2022/05/07 04:50:17;;;;;;;1.65;1.50;;;11.60;95.40;;;;;;4908803;29;20176;-72
2022/05/07 04:52:43;;;;;;;3.28;1.60;;;11.60;95.50;;;;;;4905417;29;20531;-72
2022/05/07 04:55:09;;;;;;;2.35;1.50;;;11.50;95.60;;;;;;4909836;29;20036;-72
2022/05/07 04:57:34;;;;;;;4.05;1.58;;;11.60;95.70;;;;;;4909347;29;20040;-72
2022/05/07 05:00:00;;;;;;;1.95;1.60;;;11.60;95.60;;;;;;4909220;29;20123;-72
2022/05/07 05:02:26;;;;;;;1.35;1.25;;;11.70;95.30;;;;;;4901988;29;20587;-73
2022/05/07 05:04:52;;;;;;;2.97;1.27;;;11.70;95.00;;;;;;4908679;29;20047;-72
2022/05/07 05:07:18;;;;;;;1.42;1.33;;;11.70;95.00;;;;;;4908235;29;20118;-72
2022/05/07 05:09:43;;;;;;;2.15;1.48;;;11.70;95.00;;;;;;4908252;29;20044;-72
2022/05/07 05:12:09;;;;;;;2.40;1.80;;;11.70;95.00;;;;;;4907462;29;20067;-72
2022/05/07 05:17:19;;;;;;;2.22;1.75;;;11.60;95.20;;;;;;4896569;29;20047;-72
2022/05/07 05:19:45;;;;;;;3.08;2.15;;;11.70;95.40;;;;;;4901726;29;20451;-73
2022/05/07 05:22:10;;;;;;;1.98;1.70;;;11.90;95.50;;;;;;4906313;29;20119;-73
2022/05/07 05:24:36;;;;;;;4.22;2.08;;;12.10;95.10;;;;;;4908627;29;20382;-73
2022/05/07 05:27:01;;;;;;;3.67;1.35;;;12.40;94.80;;;;;;4908934;29;20047;-73
2022/05/07 05:29:27;;;;;;;2.13;1.38;;;12.50;94.30;;;;;;4904757;29;20091;-73
2022/05/07 05:31:53;;;;;;;2.40;1.60;;;12.70;94.00;;;;;;4906986;29;20621;-72
2022/05/07 05:34:18;;;;;;;1.60;1.50;;;12.70;94.00;;;;;;4906920;29;20063;-73
2022/05/07 05:36:44;;;;;;;2.25;1.70;;;12.70;93.50;;;;;;4894151;29;20040;-73
2022/05/07 05:39:09;;;;;;;2.50;1.70;;;12.70;93.50;;;;;;4900370;29;20036;-73
2022/05/07 05:41:35;;;;;;;2.17;1.63;;;12.80;93.40;;;;;;4906661;29;20035;-73
2022/05/07 05:44:02;;;;;;;3.58;1.60;;;12.80;93.40;;;;;;4906764;29;20028;-73
2022/05/07 05:46:28;;;;;;;3.20;1.30;;;13.00;93.00;;;;;;4907501;29;20046;-73
2022/05/07 05:48:53;;;;;;;3.30;1.98;;;13.00;92.90;;;;;;4905923;29;20032;-73
2022/05/07 05:51:20;;;;;;;3.05;2.80;;;13.10;92.90;;;;;;4899280;29;21742;-73
2022/05/07 05:53:46;;;;;;;2.92;1.98;;;13.10;92.90;;;;;;4902159;29;20043;-73
2022/05/07 05:56:11;;;;;;;62.10;37.55;;;13.30;92.70;;;;;;4907231;29;20032;-73
2022/05/07 05:58:37;;;;;;;36.53;21.55;;;13.40;92.30;;;;;;4903496;29;20134;-73
2022/05/07 06:01:06;;;;;;;5.15;3.15;;;13.50;92.00;;;;;;4903392;29;20108;-74
2022/05/07 06:03:32;;;;;;;4.32;2.03;;;13.60;91.50;;;;;;4903036;29;20302;-73
2022/05/07 06:05:57;;;;;;;3.90;2.72;;;13.60;91.40;;;;;;4904250;29;20853;-73
2022/05/07 06:08:23;;;;;;;4.35;2.33;;;13.50;91.40;;;;;;4904702;29;20036;-73
2022/05/07 06:10:54;;;;;;;3.35;1.80;;;13.40;91.50;;;;;;4905332;29;20040;-73
2022/05/07 06:13:19;;;;;;;3.17;2.13;;;13.40;91.70;;;;;;4904673;29;20123;-73
2022/05/07 06:15:49;;;;;;;7.13;3.83;;;13.40;91.80;;;;;;4904425;29;20130;-73
2022/05/07 06:18:14;;;;;;;2.72;1.77;;;13.60;91.70;;;;;;4907283;29;20404;-73
2022/05/07 06:20:40;;;;;;;3.17;2.00;;;13.70;91.30;;;;;;4907305;29;20044;-73
2022/05/07 06:23:06;;;;;;;1.98;1.77;;;13.90;91.00;;;;;;4907112;29;20124;-72
2022/05/07 06:28:15;;;;;;;5.63;3.88;;;13.90;90.70;;;;;;4906885;29;20064;-73
2022/05/07 06:30:41;;;;;;;5.43;2.05;;;13.80;90.90;;;;;;4896198;29;20036;-73
2022/05/07 06:33:07;;;;;;;2.95;1.95;;;13.70;90.90;;;;;;4898954;29;20072;-73
2022/05/07 06:35:33;;;;;;;6.85;2.15;;;13.70;91.50;;;;;;4896598;29;20039;-73
2022/05/07 06:37:58;;;;;;;3.90;2.28;;;13.60;91.50;;;;;;4896966;29;20032;-73
2022/05/07 06:40:24;;;;;;;15.63;11.05;;;13.50;91.80;;;;;;4916404;29;20131;-73
2022/05/07 06:42:50;;;;;;;5.32;2.75;;;13.40;92.10;;;;;;4905018;29;20524;-74
2022/05/07 06:45:15;;;;;;;3.45;2.78;;;13.40;92.40;;;;;;4904152;29;20047;-73
2022/05/07 06:47:41;;;;;;;5.53;2.85;;;13.30;92.60;;;;;;4895555;29;20040;-73
2022/05/07 06:50:08;;;;;;;5.68;2.97;;;13.40;93.10;;;;;;4906457;29;20201;-73
2022/05/07 06:52:45;;;;;;;6.00;3.25;;;13.50;93.00;;;;;;4906997;29;20108;-73
2022/05/07 06:55:15;;;;;;;9.07;8.05;;;13.90;93.00;;;;;;4904924;29;20283;-73
2022/05/07 06:57:41;;;;;;;5.63;4.57;;;14.60;91.90;;;;;;4904836;29;20042;-74
2022/05/07 07:00:08;;;;;;;5.30;4.20;;;15.10;90.40;;;;;;4901943;29;20076;-74
2022/05/07 07:02:33;;;;;;;4.75;3.85;;;15.50;89.00;;;;;;4902912;29;20050;-74
2022/05/07 07:05:00;;;;;;;4.47;4.00;;;16.00;87.30;;;;;;4901370;29;20043;-73
2022/05/07 07:07:26;;;;;;;6.70;4.13;;;16.20;85.20;;;;;;4892599;29;20119;-74
2022/05/07 07:09:53;;;;;;;3.95;3.50;;;16.40;85.00;;;;;;4891927;29;20039;-74
2022/05/07 07:12:20;;;;;;;4.85;3.90;;;16.30;84.50;;;;;;4890491;29;20036;-73
2022/05/07 07:14:47;;;;;;;4.72;4.22;;;16.40;84.70;;;;;;4890921;29;20515;-73
2022/05/07 07:17:13;;;;;;;5.03;4.20;;;16.60;83.20;;;;;;4892804;29;20024;-73
2022/05/07 07:19:41;;;;;;;6.10;3.63;;;16.80;82.50;;;;;;4884245;29;20040;-73
2022/05/07 07:22:07;;;;;;;3.92;3.53;;;17.00;82.50;;;;;;4886117;29;20031;-74
2022/05/07 07:24:33;;;;;;;6.13;3.83;;;17.60;80.00;;;;;;4888153;29;20036;-74
2022/05/07 07:26:58;;;;;;;4.50;3.92;;;18.00;78.60;;;;;;4890769;29;20028;-73
2022/05/07 07:29:25;;;;;;;3.83;3.20;;;18.50;75.10;;;;;;4888136;29;20035;-74
2022/05/07 07:31:51;;;;;;;5.80;4.07;;;18.70;76.10;;;;;;4891617;29;20531;-73
2022/05/07 07:34:17;;;;;;;2.80;2.60;;;19.10;74.40;;;;;;4896750;29;20039;-74
2022/05/07 07:36:46;;;;;;;2.92;2.22;;;19.50;72.80;;;;;;4889964;29;20487;-74
2022/05/07 07:39:12;;;;;;;2.75;2.55;;;19.60;73.40;;;;;;4886622;29;20036;-74
2022/05/07 07:41:37;;;;;;;5.00;3.15;;;19.80;72.40;;;;;;4889323;29;20036;-74
2022/05/07 07:44:03;;;;;;;3.17;2.50;;;20.10;71.40;;;;;;4889198;29;20039;-73
2022/05/07 07:49:13;;;;;;;3.78;2.10;;;20.10;67.80;;;;;;4892623;29;20090;-74
2022/05/07 07:51:39;;;;;;;1.63;1.52;;;21.40;65.70;;;;;;4897457;29;20936;-74
2022/05/07 07:54:05;;;;;;;1.95;1.42;;;21.60;62.80;;;;;;4884688;29;20040;-73
2022/05/07 07:56:30;;;;;;;2.42;1.85;;;21.10;61.10;;;;;;4883778;29;20028;-72
2022/05/07 07:58:56;;;;;;;1.50;1.40;;;22.20;61.50;;;;;;4885459;29;20040;-74
2022/05/07 08:01:22;;;;;;;2.35;1.40;;;25.20;54.20;;;;;;4885027;29;20616;-72
2022/05/07 08:03:48;;;;;;;1.40;1.30;;;26.70;48.70;;;;;;4891096;29;20054;-74
2022/05/07 08:06:14;;;;;;;2.03;1.10;;;27.20;47.50;;;;;;4897057;29;20602;-73
2022/05/07 08:11:46;;;;;;;2.08;1.70;;;25.20;50.30;;;;;;4898209;29;21339;-74
2022/05/07 08:14:15;;;;;;;1.45;1.35;;;23.20;53.00;;;;;;4895793;29;20042;-73
2022/05/07 08:16:42;;;;;;;2.53;1.58;;;21.40;60.10;;;;;;4905687;29;20088;-74
2022/05/07 08:19:08;;;;;;;3.22;1.63;;;20.50;64.70;;;;;;4907227;29;20063;-74
2022/05/07 08:21:34;;;;;;;2.05;1.85;;;19.90;65.50;;;;;;4913334;29;20028;-73
2022/05/07 08:24:00;;;;;;;2.22;1.70;;;19.40;70.20;;;;;;4908316;29;20052;-73
2022/05/07 08:26:26;;;;;;;2.30;1.80;;;19.20;66.70;;;;;;4908940;29;20036;-73
2022/05/07 08:28:52;;;;;;;2.78;1.52;;;19.40;68.50;;;;;;4899374;29;20036;-74
2022/05/07 08:31:21;;;;;;;1.83;0.98;;;23.20;61.20;;;;;;4894282;29;20031;-74
2022/05/07 08:33:47;;;;;;;1.40;1.10;;;25.10;54.20;;;;;;4558910;29;10000011;-74
2022/05/07 08:36:13;;;;;;;1.13;0.93;;;27.20;51.80;;;;;;4894068;29;20375;-74
2022/05/07 08:38:40;;;;;;;1.73;1.15;;;27.20;45.20;;;;;;4899856;29;20059;-74
2022/05/07 08:41:06;;;;;;;1.50;0.90;;;26.10;48.80;;;;;;4901621;29;20024;-73
2022/05/07 08:43:38;;;;;;;1.65;1.10;;;26.20;48.60;;;;;;4898855;29;20046;-73
2022/05/07 08:46:10;;;;;;;1.88;0.90;;;25.40;48.50;;;;;;4904469;29;20134;-73
2022/05/07 08:48:36;;;;;;;1.00;0.90;;;26.10;49.70;;;;;;4902829;29;20052;-74
2022/05/07 08:51:03;;;;;;;1.13;0.80;;;27.70;48.10;;;;;;4890456;29;20058;-72
2022/05/07 08:53:30;;;;;;;0.98;0.88;;;27.50;44.80;;;;;;4910157;29;20071;-73
2022/05/07 08:55:56;;;;;;;1.10;1.00;;;26.00;46.60;;;;;;4905304;29;20032;-74
2022/05/07 08:58:21;;;;;;;2.42;1.10;;;25.80;48.50;;;;;;4903342;29;20051;-74
2022/05/07 09:00:47;;;;;;;0.90;0.90;;;25.30;47.50;;;;;;4896834;29;20039;-73
2022/05/07 09:03:16;;;;;;;1.40;0.73;;;24.50;49.50;;;;;;4899392;29;20419;-74
2022/05/07 09:05:42;;;;;;;0.65;0.65;;;24.00;51.80;;;;;;4903185;29;20063;-73
2022/05/07 09:08:11;;;;;;;0.80;0.80;;;23.40;52.60;;;;;;4899535;29;20035;-73
2022/05/07 09:10:38;;;;;;;2.15;1.30;;;21.90;57.80;;;;;;4898928;29;20047;-73
2022/05/07 09:13:13;;;;;;;1.52;1.00;;;20.90;58.50;;;;;;4893894;29;20066;-74
2022/05/07 09:15:57;;;;;;;0.80;0.80;;;20.20;61.00;;;;;;4898784;29;20040;-73
2022/05/07 09:18:25;;;;;;;0.93;0.77;;;20.00;63.30;;;;;;4902626;29;20087;-72
2022/05/07 09:21:16;;;;;;;2.50;1.00;;;20.00;64.30;;;;;;4900838;29;20147;-72
2022/05/07 09:23:46;;;;;;;1.17;1.00;;;20.10;63.40;;;;;;4903998;29;20028;-72
2022/05/07 09:26:29;;;;;;;0.70;0.70;;;20.00;64.70;;;;;;4906915;29;20040;-71
2022/05/07 09:28:55;;;;;;;0.98;0.70;;;20.10;63.30;;;;;;4900507;29;20024;-71
2022/05/07 09:31:24;;;;;;;0.65;0.65;;;19.80;62.90;;;;;;4904795;29;20289;-71
2022/05/07 09:33:50;;;;;;;2.17;0.73;;;19.30;63.10;;;;;;4900091;29;20564;-71
2022/05/07 09:36:15;;;;;;;0.57;0.57;;;19.20;64.70;;;;;;4901927;29;20028;-71
2022/05/07 09:38:43;;;;;;;1.25;0.68;;;19.20;67.30;;;;;;4905643;29;20070;-71
2022/05/07 09:41:19;;;;;;;1.27;0.90;;;19.50;65.00;;;;;;4906179;29;20535;-72
2022/05/07 09:43:46;;;;;;;0.80;0.70;;;20.20;63.90;;;;;;4904120;29;20568;-71
2022/05/07 09:46:11;;;;;;;1.92;0.88;;;21.50;61.60;;;;;;4894112;29;20598;-71
2022/05/07 09:48:39;;;;;;;1.00;0.47;;;22.40;61.00;;;;;;4895085;29;20047;-71
2022/05/07 09:51:05;;;;;;;1.17;0.50;;;23.20;58.00;;;;;;4898295;29;20114;-71
2022/05/07 09:59:01;;;;;;;1.02;0.52;;;28.40;45.20;;;;;;4898290;29;20047;-71
2022/05/07 10:01:32;;;;;;;1.10;0.60;;;29.80;37.50;;;;;;4897642;29;20478;-71
2022/05/07 10:04:38;;;;;;;2.13;0.77;;;29.10;38.30;;;;;;4901405;29;20044;-71
2022/05/07 10:07:06;;;;;;;2.25;0.70;;;27.20;40.60;;;;;;4897834;29;20521;-71
2022/05/07 10:10:02;;;;;;;1.77;0.90;;;24.60;48.10;;;;;;4901198;29;20039;-71
2022/05/07 10:12:28;;;;;;;2.63;1.20;;;22.60;54.10;;;;;;4898983;29;20083;-71
2022/05/07 10:15:05;;;;;;;1.65;1.30;;;21.30;60.20;;;;;;4901879;29;20072;-71
2022/05/07 10:17:31;;;;;;;2.08;1.45;;;20.40;60.50;;;;;;4898057;29;20028;-71
2022/05/07 10:20:05;;;;;;;2.47;1.30;;;19.50;66.30;;;;;;4898173;29;20051;-71
2022/05/07 10:22:31;;;;;;;2.03;1.33;;;18.80;70.20;;;;;;4899866;29;20028;-71
2022/05/07 10:25:06;;;;;;;2.00;1.42;;;18.20;72.80;;;;;;4896660;29;20037;-71
2022/05/07 10:27:43;;;;;;;3.30;1.52;;;17.80;72.90;;;;;;4902115;29;20116;-71
2022/05/07 10:30:09;;;;;;;0.82;0.82;;;17.50;74.80;;;;;;4904434;29;20135;-71
2022/05/07 10:33:01;;;;;;;3.50;1.10;;;17.20;76.50;;;;;;4898569;29;20055;-71
2022/05/07 10:35:51;;;;;;;4.63;1.40;;;17.00;75.00;;;;;;4893842;29;20071;-71
2022/05/07 10:38:27;;;;;;;1.70;1.38;;;16.80;76.20;;;;;;4904358;29;20123;-71
2022/05/07 10:40:54;;;;;;;2.05;1.35;;;16.60;78.10;;;;;;4902864;29;20028;-71
2022/05/07 10:43:36;;;;;;;1.85;1.35;;;16.60;79.00;;;;;;4896819;29;20035;-71
2022/05/07 10:46:04;;;;;;;1.40;1.30;;;16.40;79.80;;;;;;4903802;29;20506;-71
2022/05/07 10:48:43;;;;;;;2.25;1.50;;;16.40;77.10;;;;;;4906288;29;20136;-71
2022/05/07 10:51:17;;;;;;;1.88;1.45;;;16.40;79.80;;;;;;4906229;29;20032;-71
2022/05/07 10:53:43;;;;;;;3.78;1.40;;;16.30;82.70;;;;;;4904054;29;20361;-71
2022/05/07 10:56:17;;;;;;;1.60;1.50;;;16.30;83.00;;;;;;4901317;29;20110;-71
2022/05/07 10:58:48;;;;;;;1.38;1.30;;;16.40;83.10;;;;;;4900069;29;20107;-71
2022/05/07 11:01:14;;;;;;;1.55;1.45;;;16.50;81.30;;;;;;4901021;29;20058;-71
2022/05/07 11:03:40;;;;;;;1.90;1.70;;;16.70;80.50;;;;;;4902883;29;20056;-70
2022/05/07 11:06:06;;;;;;;2.00;1.30;;;16.70;80.90;;;;;;4904924;29;20381;-71
2022/05/07 11:08:31;;;;;;;2.60;1.50;;;16.70;79.90;;;;;;4904210;29;20036;-71
2022/05/07 11:11:07;;;;;;;3.00;1.70;;;16.80;80.80;;;;;;4903234;29;20075;-71
2022/05/07 11:13:57;;;;;;;2.58;1.73;;;17.00;81.20;;;;;;4905924;29;20027;-70
2022/05/07 11:16:24;;;;;;;2.40;2.03;;;17.10;80.80;;;;;;4887853;29;20511;-70
2022/05/07 11:18:52;;;;;;;1.98;1.88;;;17.10;80.20;;;;;;4895890;29;20032;-70
2022/05/07 11:21:25;;;;;;;2.80;1.52;;;17.20;81.20;;;;;;4911419;29;20494;-70
2022/05/07 11:24:01;;;;;;;2.03;1.83;;;17.30;82.20;;;;;;4907472;29;20123;-70
2022/05/07 11:26:27;;;;;;;2.33;2.22;;;17.10;79.80;;;;;;4903644;29;20049;-71
2022/05/07 11:28:53;;;;;;;3.92;2.38;;;17.30;78.60;;;;;;4899254;29;20094;-70
2022/05/07 11:31:29;;;;;;;1.42;1.33;;;17.40;77.50;;;;;;4905170;29;20028;-70
2022/05/07 11:34:02;;;;;;;2.45;2.20;;;17.50;79.30;;;;;;4893397;29;20039;-72
2022/05/07 11:36:27;;;;;;;2.47;2.15;;;17.50;78.70;;;;;;4904854;29;20024;-70
2022/05/07 11:38:58;;;;;;;2.45;1.30;;;17.60;75.60;;;;;;4901343;29;20443;-71
2022/05/07 11:41:24;;;;;;;1.95;1.85;;;17.60;79.40;;;;;;4902702;29;20032;-71
2022/05/07 11:46:34;;;;;;;4.72;2.60;;;17.90;77.90;;;;;;4897152;29;20060;-71
2022/05/07 11:49:06;;;;;;;1.85;1.75;;;18.00;77.40;;;;;;4895174;29;20033;-72
2022/05/07 11:51:32;;;;;;;3.20;2.70;;;18.30;74.10;;;;;;4894645;29;20032;-72
2022/05/07 11:54:08;;;;;;;2.58;2.10;;;18.50;75.00;;;;;;4914652;29;20040;-72
2022/05/07 11:56:44;;;;;;;2.05;1.95;;;19.00;72.90;;;;;;4904145;29;20571;-72
2022/05/07 11:59:09;;;;;;;2.00;1.90;;;19.30;67.70;;;;;;4902429;29;20051;-72
2022/05/07 12:01:35;;;;;;;2.05;1.80;;;19.70;70.70;;;;;;4905415;29;20040;-72
2022/05/07 12:04:08;;;;;;;1.98;1.88;;;20.00;69.50;;;;;;4904036;29;20493;-72
2022/05/07 12:06:34;;;;;;;1.67;1.58;;;20.50;67.70;;;;;;4901528;29;20899;-71
2022/05/07 12:09:11;;;;;;;2.38;1.60;;;20.70;64.50;;;;;;4903768;29;20029;-73
2022/05/07 12:11:36;;;;;;;1.38;1.27;;;21.10;64.90;;;;;;4898701;29;20040;-73
2022/05/07 12:14:02;;;;;;;1.55;1.45;;;21.60;63.20;;;;;;4904308;29;20369;-73
2022/05/07 12:19:12;;;;;;;1.05;1.05;;;22.50;60.40;;;;;;4904687;29;20051;-74
2022/05/07 12:29:52;;;;;;;1.50;1.40;;;23.10;57.30;;;;;;4900724;29;20036;-73
2022/05/07 12:32:23;;;;;;;2.25;1.40;;;23.30;53.90;;;;;;4916846;29;20043;-73
2022/05/07 12:34:48;;;;;;;;;;;23.30;57.60;;;;;;4902100;29;20036;-73
2022/05/07 12:37:15;;;;;;;1.67;1.58;;;23.60;57.40;;;;;;4896123;29;20004;-73
2022/05/07 12:39:41;;;;;;;1.30;1.20;;;23.70;56.80;;;;;;4895884;29;20118;-73
2022/05/07 12:42:08;;;;;;;6.45;1.63;;;23.90;56.50;;;;;;4896484;29;20571;-73
2022/05/07 12:44:34;;;;;;;2.90;2.05;;;23.90;56.50;;;;;;4900468;29;20123;-73
2022/05/07 12:47:00;;;;;;;2.28;2.08;;;23.90;55.50;;;;;;4898287;29;20036;-73
2022/05/07 12:49:27;;;;;;;1.65;1.55;;;23.40;54.50;;;;;;4898647;29;20042;-74
2022/05/07 12:51:53;;;;;;;1.70;1.60;;;22.90;59.00;;;;;;4897760;29;20059;-73
2022/05/07 12:54:19;;;;;;;2.03;1.83;;;22.80;58.30;;;;;;4896024;29;20040;-73
2022/05/07 12:56:46;;;;;;;3.13;2.10;;;22.10;58.70;;;;;;4899461;29;20036;-73
2022/05/07 12:59:11;;;;;;;4.00;2.30;;;21.70;59.70;;;;;;4902852;29;20032;-73
2022/05/07 13:01:38;;;;;;;2.58;2.38;;;21.50;62.20;;;;;;4899537;29;20526;-73
2022/05/07 13:04:04;;;;;;;2.03;1.92;;;20.90;63.00;;;;;;4900913;29;20517;-73
2022/05/07 13:06:30;;;;;;;2.85;1.40;;;20.20;63.60;;;;;;4904965;29;20508;-73
2022/05/07 13:08:58;;;;;;;1.70;1.58;;;19.80;67.20;;;;;;4900902;29;20032;-73
2022/05/07 13:11:24;;;;;;;2.25;2.05;;;19.40;69.40;;;;;;4903761;29;20036;-72
2022/05/07 13:13:51;;;;;;;2.15;1.77;;;18.80;72.20;;;;;;4904586;29;20131;-72
2022/05/07 13:16:17;;;;;;;2.10;1.70;;;18.40;75.20;;;;;;4905471;29;20036;-72
2022/05/07 13:18:44;;;;;;;1.40;1.35;;;18.10;78.00;;;;;;4904698;29;20040;-72
2022/05/07 13:21:10;;;;;;;1.67;1.58;;;17.80;81.40;;;;;;4907600;29;20032;-72
2022/05/07 13:23:36;;;;;;;2.17;2.05;;;17.80;79.70;;;;;;4902549;29;20044;-72
2022/05/07 13:26:03;;;;;;;1.80;1.40;;;17.90;82.50;;;;;;4904305;29;20050;-73
2022/05/07 13:28:28;;;;;;;1.90;1.80;;;18.20;80.00;;;;;;4905607;29;20437;-73
2022/05/07 13:30:58;;;;;;;2.00;1.90;;;18.50;79.00;;;;;;4904307;29;20481;-73